sensor_id;sensor_type;location;lat;lon;timestamp;P1;durP1;ratioP1;P2;durP2;ratioP2
1699;SDS011;847;48.058;7.810;2022-12-18T00:02:11;46.65;;;19.83;;
1699;SDS011;847;48.058;7.810;2022-12-18T00:04:38;53.97;;;19.58;;
1699;SDS011;847;48.058;7.810;2022-12-18T00:07:05;51.78;;;19.80;;
1699;SDS011;847;48.058;7.810;2022-12-18T00:09:33;49.35;;;20.40;;
1699;SDS011;847;48.058;7.810;2022-12-18T00:12:00;51.53;;;19.42;;
1699;SDS011;847;48.058;7.810;2022-12-18T00:14:27;46.38;;;18.67;;
1699;SDS011;847;48.058;7.810;2022-12-18T00:16:54;56.00;;;19.20;;
1699;SDS011;847;48.058;7.810;2022-12-18T00:19:21;41.33;;;19.77;;
1699;SDS011;847;48.058;7.810;2022-12-18T00:21:48;51.05;;;20.65;;
1699;SDS011;847;48.058;7.810;2022-12-18T00:24:15;44.75;;;21.25;;
1699;SDS011;847;48.058;7.810;2022-12-18T00:26:43;40.17;;;19.67;;
1699;SDS011;847;48.058;7.810;2022-12-18T00:29:11;41.42;;;20.08;;
1699;SDS011;847;48.058;7.810;2022-12-18T00:31:39;50.05;;;19.30;;
1699;SDS011;847;48.058;7.810;2022-12-18T00:34:08;57.05;;;22.17;;
1699;SDS011;847;48.058;7.810;2022-12-18T00:36:37;43.85;;;19.67;;
1699;SDS011;847;48.058;7.810;2022-12-18T00:39:05;56.83;;;21.27;;
1699;SDS011;847;48.058;7.810;2022-12-18T00:41:33;49.03;;;22.75;;
1699;SDS011;847;48.058;7.810;2022-12-18T00:44:18;45.33;;;19.70;;
1699;SDS011;847;48.058;7.810;2022-12-18T00:46:45;48.33;;;20.38;;
1699;SDS011;847;48.058;7.810;2022-12-18T00:49:13;44.13;;;20.75;;
1699;SDS011;847;48.058;7.810;2022-12-18T00:51:40;67.35;;;25.25;;
1699;SDS011;847;48.058;7.810;2022-12-18T00:54:07;50.33;;;19.65;;
1699;SDS011;847;48.058;7.810;2022-12-18T00:56:35;48.75;;;21.15;;
1699;SDS011;847;48.058;7.810;2022-12-18T00:59:03;46.17;;;19.25;;
1699;SDS011;847;48.058;7.810;2022-12-18T01:01:31;41.70;;;19.88;;
1699;SDS011;847;48.058;7.810;2022-12-18T01:03:59;46.58;;;20.15;;
1699;SDS011;847;48.058;7.810;2022-12-18T01:06:27;40.63;;;18.30;;
1699;SDS011;847;48.058;7.810;2022-12-18T01:08:54;42.65;;;21.15;;
1699;SDS011;847;48.058;7.810;2022-12-18T01:11:21;48.15;;;19.58;;
1699;SDS011;847;48.058;7.810;2022-12-18T01:13:48;47.10;;;21.90;;
1699;SDS011;847;48.058;7.810;2022-12-18T01:16:15;44.53;;;21.00;;
1699;SDS011;847;48.058;7.810;2022-12-18T01:18:44;49.05;;;20.23;;
1699;SDS011;847;48.058;7.810;2022-12-18T01:21:12;46.75;;;19.50;;
1699;SDS011;847;48.058;7.810;2022-12-18T01:23:40;45.40;;;19.70;;
1699;SDS011;847;48.058;7.810;2022-12-18T01:26:08;44.90;;;20.67;;
1699;SDS011;847;48.058;7.810;2022-12-18T01:28:36;37.53;;;17.27;;
1699;SDS011;847;48.058;7.810;2022-12-18T01:31:10;39.65;;;18.20;;
1699;SDS011;847;48.058;7.810;2022-12-18T01:33:39;47.65;;;20.58;;
1699;SDS011;847;48.058;7.810;2022-12-18T01:36:07;44.33;;;19.83;;
1699;SDS011;847;48.058;7.810;2022-12-18T01:38:34;40.58;;;18.40;;
1699;SDS011;847;48.058;7.810;2022-12-18T01:41:01;48.55;;;20.77;;
1699;SDS011;847;48.058;7.810;2022-12-18T01:43:44;40.50;;;17.60;;
1699;SDS011;847;48.058;7.810;2022-12-18T01:46:14;42.28;;;16.48;;
1699;SDS011;847;48.058;7.810;2022-12-18T01:48:41;39.10;;;19.00;;
1699;SDS011;847;48.058;7.810;2022-12-18T01:51:11;35.38;;;18.42;;
1699;SDS011;847;48.058;7.810;2022-12-18T01:53:39;40.80;;;18.63;;
1699;SDS011;847;48.058;7.810;2022-12-18T01:56:11;42.80;;;18.23;;
1699;SDS011;847;48.058;7.810;2022-12-18T01:58:40;41.10;;;16.95;;
1699;SDS011;847;48.058;7.810;2022-12-18T02:01:14;38.92;;;16.90;;
1699;SDS011;847;48.058;7.810;2022-12-18T02:03:41;38.78;;;17.90;;
1699;SDS011;847;48.058;7.810;2022-12-18T02:06:10;46.40;;;18.63;;
1699;SDS011;847;48.058;7.810;2022-12-18T02:08:47;35.10;;;19.50;;
1699;SDS011;847;48.058;7.810;2022-12-18T02:11:21;41.15;;;19.65;;
1699;SDS011;847;48.058;7.810;2022-12-18T02:13:57;39.65;;;19.75;;
1699;SDS011;847;48.058;7.810;2022-12-18T02:16:34;43.40;;;20.40;;
1699;SDS011;847;48.058;7.810;2022-12-18T02:19:11;38.42;;;18.10;;
1699;SDS011;847;48.058;7.810;2022-12-18T02:21:49;35.22;;;17.05;;
1699;SDS011;847;48.058;7.810;2022-12-18T02:24:26;39.15;;;16.70;;
1699;SDS011;847;48.058;7.810;2022-12-18T02:27:02;40.28;;;18.30;;
1699;SDS011;847;48.058;7.810;2022-12-18T02:29:33;30.75;;;16.08;;
1699;SDS011;847;48.058;7.810;2022-12-18T02:32:04;40.50;;;18.77;;
1699;SDS011;847;48.058;7.810;2022-12-18T02:34:37;35.35;;;16.58;;
1699;SDS011;847;48.058;7.810;2022-12-18T02:37:06;37.70;;;17.27;;
1699;SDS011;847;48.058;7.810;2022-12-18T02:39:37;40.25;;;17.02;;
1699;SDS011;847;48.058;7.810;2022-12-18T02:42:07;37.97;;;17.67;;
1699;SDS011;847;48.058;7.810;2022-12-18T02:44:35;39.28;;;19.52;;
1699;SDS011;847;48.058;7.810;2022-12-18T02:47:08;38.03;;;18.90;;
1699;SDS011;847;48.058;7.810;2022-12-18T02:49:40;34.85;;;17.48;;
1699;SDS011;847;48.058;7.810;2022-12-18T02:52:16;32.90;;;17.35;;
1699;SDS011;847;48.058;7.810;2022-12-18T02:54:55;37.45;;;17.63;;
1699;SDS011;847;48.058;7.810;2022-12-18T02:57:35;35.47;;;17.60;;
1699;SDS011;847;48.058;7.810;2022-12-18T03:00:08;37.45;;;17.05;;
1699;SDS011;847;48.058;7.810;2022-12-18T03:02:39;36.85;;;17.58;;
1699;SDS011;847;48.058;7.810;2022-12-18T03:05:12;37.97;;;17.92;;
1699;SDS011;847;48.058;7.810;2022-12-18T03:07:42;37.60;;;17.67;;
1699;SDS011;847;48.058;7.810;2022-12-18T03:10:14;43.13;;;20.35;;
1699;SDS011;847;48.058;7.810;2022-12-18T03:12:46;38.75;;;16.65;;
1699;SDS011;847;48.058;7.810;2022-12-18T03:15:18;36.72;;;17.88;;
1699;SDS011;847;48.058;7.810;2022-12-18T03:17:50;37.75;;;19.05;;
1699;SDS011;847;48.058;7.810;2022-12-18T03:20:19;42.00;;;17.83;;
1699;SDS011;847;48.058;7.810;2022-12-18T03:22:51;39.45;;;18.17;;
1699;SDS011;847;48.058;7.810;2022-12-18T03:25:20;35.50;;;17.58;;
1699;SDS011;847;48.058;7.810;2022-12-18T03:27:51;40.05;;;18.45;;
1699;SDS011;847;48.058;7.810;2022-12-18T03:30:22;40.35;;;18.00;;
1699;SDS011;847;48.058;7.810;2022-12-18T03:32:51;37.55;;;17.05;;
1699;SDS011;847;48.058;7.810;2022-12-18T03:35:24;37.35;;;19.50;;
1699;SDS011;847;48.058;7.810;2022-12-18T03:37:56;36.28;;;15.85;;
1699;SDS011;847;48.058;7.810;2022-12-18T03:40:26;36.60;;;16.90;;
1699;SDS011;847;48.058;7.810;2022-12-18T03:42:59;38.20;;;17.88;;
1699;SDS011;847;48.058;7.810;2022-12-18T03:45:31;40.17;;;16.92;;
1699;SDS011;847;48.058;7.810;2022-12-18T03:48:01;36.90;;;18.67;;
1699;SDS011;847;48.058;7.810;2022-12-18T03:50:37;33.00;;;17.45;;
1699;SDS011;847;48.058;7.810;2022-12-18T03:53:15;37.80;;;18.13;;
1699;SDS011;847;48.058;7.810;2022-12-18T03:55:47;36.15;;;16.00;;
1699;SDS011;847;48.058;7.810;2022-12-18T03:58:17;41.35;;;16.92;;
1699;SDS011;847;48.058;7.810;2022-12-18T04:00:47;36.80;;;17.27;;
1699;SDS011;847;48.058;7.810;2022-12-18T04:03:15;36.53;;;18.40;;
1699;SDS011;847;48.058;7.810;2022-12-18T04:05:45;32.33;;;17.75;;
1699;SDS011;847;48.058;7.810;2022-12-18T04:08:15;38.60;;;16.45;;
1699;SDS011;847;48.058;7.810;2022-12-18T04:10:42;28.67;;;15.70;;
1699;SDS011;847;48.058;7.810;2022-12-18T04:13:09;33.28;;;18.55;;
1699;SDS011;847;48.058;7.810;2022-12-18T04:15:37;39.70;;;19.60;;
1699;SDS011;847;48.058;7.810;2022-12-18T04:18:05;38.03;;;19.40;;
1699;SDS011;847;48.058;7.810;2022-12-18T04:20:32;37.55;;;17.13;;
1699;SDS011;847;48.058;7.810;2022-12-18T04:22:59;37.50;;;16.67;;
1699;SDS011;847;48.058;7.810;2022-12-18T04:25:25;34.90;;;16.60;;
1699;SDS011;847;48.058;7.810;2022-12-18T04:27:52;40.70;;;17.25;;
1699;SDS011;847;48.058;7.810;2022-12-18T04:30:19;29.60;;;17.08;;
1699;SDS011;847;48.058;7.810;2022-12-18T04:32:47;39.42;;;18.90;;
1699;SDS011;847;48.058;7.810;2022-12-18T04:35:14;33.95;;;19.65;;
1699;SDS011;847;48.058;7.810;2022-12-18T04:37:41;36.47;;;17.67;;
1699;SDS011;847;48.058;7.810;2022-12-18T04:40:08;40.25;;;18.65;;
1699;SDS011;847;48.058;7.810;2022-12-18T04:42:35;33.42;;;18.05;;
1699;SDS011;847;48.058;7.810;2022-12-18T04:45:02;37.20;;;16.92;;
1699;SDS011;847;48.058;7.810;2022-12-18T04:47:30;35.72;;;17.08;;
1699;SDS011;847;48.058;7.810;2022-12-18T04:49:58;40.03;;;17.83;;
1699;SDS011;847;48.058;7.810;2022-12-18T04:52:25;32.03;;;15.55;;
1699;SDS011;847;48.058;7.810;2022-12-18T04:54:52;31.70;;;15.63;;
1699;SDS011;847;48.058;7.810;2022-12-18T04:57:18;35.95;;;17.60;;
1699;SDS011;847;48.058;7.810;2022-12-18T04:59:45;29.80;;;15.13;;
1699;SDS011;847;48.058;7.810;2022-12-18T05:02:12;36.88;;;17.52;;
1699;SDS011;847;48.058;7.810;2022-12-18T05:04:39;33.30;;;16.35;;
1699;SDS011;847;48.058;7.810;2022-12-18T05:07:07;34.17;;;17.88;;
1699;SDS011;847;48.058;7.810;2022-12-18T05:09:34;34.88;;;16.73;;
1699;SDS011;847;48.058;7.810;2022-12-18T05:12:00;37.40;;;16.70;;
1699;SDS011;847;48.058;7.810;2022-12-18T05:14:27;32.97;;;16.38;;
1699;SDS011;847;48.058;7.810;2022-12-18T05:16:54;45.35;;;18.02;;
1699;SDS011;847;48.058;7.810;2022-12-18T05:19:21;38.78;;;18.42;;
1699;SDS011;847;48.058;7.810;2022-12-18T05:21:47;32.05;;;16.40;;
1699;SDS011;847;48.058;7.810;2022-12-18T05:24:16;34.33;;;15.95;;
1699;SDS011;847;48.058;7.810;2022-12-18T05:26:42;44.03;;;18.00;;
1699;SDS011;847;48.058;7.810;2022-12-18T05:29:09;39.38;;;16.73;;
1699;SDS011;847;48.058;7.810;2022-12-18T05:31:37;30.77;;;15.75;;
1699;SDS011;847;48.058;7.810;2022-12-18T05:34:04;33.50;;;16.58;;
1699;SDS011;847;48.058;7.810;2022-12-18T05:36:30;35.28;;;16.17;;
1699;SDS011;847;48.058;7.810;2022-12-18T05:38:57;33.17;;;15.77;;
1699;SDS011;847;48.058;7.810;2022-12-18T05:41:26;27.17;;;15.88;;
1699;SDS011;847;48.058;7.810;2022-12-18T05:43:53;30.75;;;14.70;;
1699;SDS011;847;48.058;7.810;2022-12-18T05:46:20;36.08;;;15.27;;
1699;SDS011;847;48.058;7.810;2022-12-18T05:48:47;29.40;;;15.52;;
1699;SDS011;847;48.058;7.810;2022-12-18T05:51:16;36.85;;;18.70;;
1699;SDS011;847;48.058;7.810;2022-12-18T05:53:45;25.08;;;15.75;;
1699;SDS011;847;48.058;7.810;2022-12-18T05:56:13;30.75;;;13.95;;
1699;SDS011;847;48.058;7.810;2022-12-18T05:58:42;29.98;;;14.00;;
1699;SDS011;847;48.058;7.810;2022-12-18T06:01:11;37.60;;;15.13;;
1699;SDS011;847;48.058;7.810;2022-12-18T06:03:39;33.42;;;15.80;;
1699;SDS011;847;48.058;7.810;2022-12-18T06:06:12;30.13;;;15.82;;
1699;SDS011;847;48.058;7.810;2022-12-18T06:08:39;27.80;;;14.68;;
1699;SDS011;847;48.058;7.810;2022-12-18T06:11:06;27.55;;;14.15;;
1699;SDS011;847;48.058;7.810;2022-12-18T06:13:33;28.15;;;15.80;;
1699;SDS011;847;48.058;7.810;2022-12-18T06:16:02;24.30;;;14.75;;
1699;SDS011;847;48.058;7.810;2022-12-18T06:18:32;29.52;;;15.30;;
1699;SDS011;847;48.058;7.810;2022-12-18T06:21:01;29.08;;;15.43;;
1699;SDS011;847;48.058;7.810;2022-12-18T06:23:28;30.10;;;16.52;;
1699;SDS011;847;48.058;7.810;2022-12-18T06:25:55;30.45;;;13.75;;
1699;SDS011;847;48.058;7.810;2022-12-18T06:28:22;32.60;;;14.23;;
1699;SDS011;847;48.058;7.810;2022-12-18T06:30:49;27.67;;;14.57;;
1699;SDS011;847;48.058;7.810;2022-12-18T06:33:17;31.60;;;16.75;;
1699;SDS011;847;48.058;7.810;2022-12-18T06:35:44;33.17;;;15.27;;
1699;SDS011;847;48.058;7.810;2022-12-18T06:38:11;27.33;;;14.55;;
1699;SDS011;847;48.058;7.810;2022-12-18T06:40:38;29.83;;;16.38;;
1699;SDS011;847;48.058;7.810;2022-12-18T06:43:05;33.30;;;16.20;;
1699;SDS011;847;48.058;7.810;2022-12-18T06:45:32;32.45;;;15.15;;
1699;SDS011;847;48.058;7.810;2022-12-18T06:47:59;33.17;;;14.50;;
1699;SDS011;847;48.058;7.810;2022-12-18T06:50:27;28.67;;;15.10;;
1699;SDS011;847;48.058;7.810;2022-12-18T06:52:54;28.23;;;15.82;;
1699;SDS011;847;48.058;7.810;2022-12-18T06:55:21;30.55;;;14.82;;
1699;SDS011;847;48.058;7.810;2022-12-18T06:57:48;28.67;;;17.05;;
1699;SDS011;847;48.058;7.810;2022-12-18T07:00:15;24.08;;;12.93;;
1699;SDS011;847;48.058;7.810;2022-12-18T07:02:42;25.45;;;13.13;;
1699;SDS011;847;48.058;7.810;2022-12-18T07:05:08;24.55;;;13.18;;
1699;SDS011;847;48.058;7.810;2022-12-18T07:07:36;29.10;;;14.20;;
1699;SDS011;847;48.058;7.810;2022-12-18T07:10:03;36.38;;;15.48;;
1699;SDS011;847;48.058;7.810;2022-12-18T07:12:31;25.48;;;13.68;;
1699;SDS011;847;48.058;7.810;2022-12-18T07:14:57;24.45;;;14.23;;
1699;SDS011;847;48.058;7.810;2022-12-18T07:17:24;31.73;;;16.27;;
1699;SDS011;847;48.058;7.810;2022-12-18T07:19:51;30.63;;;14.20;;
1699;SDS011;847;48.058;7.810;2022-12-18T07:22:18;34.88;;;14.27;;
1699;SDS011;847;48.058;7.810;2022-12-18T07:24:46;29.02;;;16.20;;
1699;SDS011;847;48.058;7.810;2022-12-18T07:27:13;37.95;;;16.80;;
1699;SDS011;847;48.058;7.810;2022-12-18T07:29:39;34.78;;;18.42;;
1699;SDS011;847;48.058;7.810;2022-12-18T07:32:06;28.55;;;15.73;;
1699;SDS011;847;48.058;7.810;2022-12-18T07:34:33;31.73;;;16.25;;
1699;SDS011;847;48.058;7.810;2022-12-18T07:37:00;27.48;;;15.70;;
1699;SDS011;847;48.058;7.810;2022-12-18T07:39:27;32.22;;;16.55;;
1699;SDS011;847;48.058;7.810;2022-12-18T07:41:55;35.88;;;16.55;;
1699;SDS011;847;48.058;7.810;2022-12-18T07:44:40;33.42;;;15.82;;
1699;SDS011;847;48.058;7.810;2022-12-18T07:47:07;29.90;;;14.70;;
1699;SDS011;847;48.058;7.810;2022-12-18T07:49:33;32.38;;;15.25;;
1699;SDS011;847;48.058;7.810;2022-12-18T07:52:00;37.90;;;15.57;;
1699;SDS011;847;48.058;7.810;2022-12-18T07:54:27;31.13;;;16.30;;
1699;SDS011;847;48.058;7.810;2022-12-18T07:56:55;27.85;;;14.88;;
1699;SDS011;847;48.058;7.810;2022-12-18T07:59:22;40.70;;;19.00;;
1699;SDS011;847;48.058;7.810;2022-12-18T08:01:49;36.60;;;16.50;;
1699;SDS011;847;48.058;7.810;2022-12-18T08:04:16;32.58;;;16.67;;
1699;SDS011;847;48.058;7.810;2022-12-18T08:06:42;33.90;;;17.25;;
1699;SDS011;847;48.058;7.810;2022-12-18T08:09:09;30.80;;;14.13;;
1699;SDS011;847;48.058;7.810;2022-12-18T08:11:36;27.98;;;16.10;;
1699;SDS011;847;48.058;7.810;2022-12-18T08:14:04;23.00;;;12.73;;
1699;SDS011;847;48.058;7.810;2022-12-18T08:16:31;30.23;;;15.02;;
1699;SDS011;847;48.058;7.810;2022-12-18T08:18:58;33.22;;;15.63;;
1699;SDS011;847;48.058;7.810;2022-12-18T08:21:25;32.40;;;14.55;;
1699;SDS011;847;48.058;7.810;2022-12-18T08:23:54;28.50;;;15.43;;
1699;SDS011;847;48.058;7.810;2022-12-18T08:26:22;28.05;;;14.20;;
1699;SDS011;847;48.058;7.810;2022-12-18T08:28:50;27.17;;;13.02;;
1699;SDS011;847;48.058;7.810;2022-12-18T08:31:19;21.60;;;13.55;;
1699;SDS011;847;48.058;7.810;2022-12-18T08:33:47;29.17;;;13.82;;
1699;SDS011;847;48.058;7.810;2022-12-18T08:36:15;26.85;;;12.70;;
1699;SDS011;847;48.058;7.810;2022-12-18T08:38:42;24.52;;;13.10;;
1699;SDS011;847;48.058;7.810;2022-12-18T08:41:09;25.17;;;14.57;;
1699;SDS011;847;48.058;7.810;2022-12-18T08:43:37;26.30;;;13.75;;
1699;SDS011;847;48.058;7.810;2022-12-18T08:46:23;26.67;;;13.60;;
1699;SDS011;847;48.058;7.810;2022-12-18T08:48:52;24.58;;;12.70;;
1699;SDS011;847;48.058;7.810;2022-12-18T08:51:19;24.90;;;13.40;;
1699;SDS011;847;48.058;7.810;2022-12-18T08:53:46;27.52;;;15.75;;
1699;SDS011;847;48.058;7.810;2022-12-18T08:56:13;29.05;;;14.13;;
1699;SDS011;847;48.058;7.810;2022-12-18T08:58:40;32.78;;;15.55;;
1699;SDS011;847;48.058;7.810;2022-12-18T09:01:09;31.50;;;14.32;;
1699;SDS011;847;48.058;7.810;2022-12-18T09:03:38;29.25;;;14.85;;
1699;SDS011;847;48.058;7.810;2022-12-18T09:06:06;32.10;;;14.50;;
1699;SDS011;847;48.058;7.810;2022-12-18T09:08:33;48.50;;;17.48;;
1699;SDS011;847;48.058;7.810;2022-12-18T09:11:00;31.80;;;15.02;;
1699;SDS011;847;48.058;7.810;2022-12-18T09:13:26;34.03;;;16.40;;
1699;SDS011;847;48.058;7.810;2022-12-18T09:15:54;30.05;;;13.73;;
1699;SDS011;847;48.058;7.810;2022-12-18T09:18:22;29.95;;;14.70;;
1699;SDS011;847;48.058;7.810;2022-12-18T09:20:50;37.58;;;16.75;;
1699;SDS011;847;48.058;7.810;2022-12-18T09:23:18;37.55;;;17.20;;
1699;SDS011;847;48.058;7.810;2022-12-18T09:25:44;34.28;;;16.75;;
1699;SDS011;847;48.058;7.810;2022-12-18T09:28:12;35.38;;;17.70;;
1699;SDS011;847;48.058;7.810;2022-12-18T09:30:39;32.78;;;15.77;;
1699;SDS011;847;48.058;7.810;2022-12-18T09:33:07;31.25;;;15.88;;
1699;SDS011;847;48.058;7.810;2022-12-18T09:35:35;38.65;;;18.00;;
1699;SDS011;847;48.058;7.810;2022-12-18T09:38:04;34.80;;;16.83;;
1699;SDS011;847;48.058;7.810;2022-12-18T09:40:32;38.88;;;17.52;;
1699;SDS011;847;48.058;7.810;2022-12-18T09:43:02;40.90;;;20.05;;
1699;SDS011;847;48.058;7.810;2022-12-18T09:45:31;41.40;;;19.33;;
1699;SDS011;847;48.058;7.810;2022-12-18T09:48:08;41.53;;;18.90;;
1699;SDS011;847;48.058;7.810;2022-12-18T09:50:40;31.95;;;18.25;;
1699;SDS011;847;48.058;7.810;2022-12-18T09:53:11;35.47;;;17.42;;
1699;SDS011;847;48.058;7.810;2022-12-18T09:55:43;38.55;;;18.58;;
1699;SDS011;847;48.058;7.810;2022-12-18T09:58:13;37.47;;;20.05;;
1699;SDS011;847;48.058;7.810;2022-12-18T10:00:45;48.60;;;19.73;;
1699;SDS011;847;48.058;7.810;2022-12-18T10:03:12;50.55;;;21.17;;
1699;SDS011;847;48.058;7.810;2022-12-18T10:05:42;42.58;;;18.73;;
1699;SDS011;847;48.058;7.810;2022-12-18T10:08:16;40.67;;;20.25;;
1699;SDS011;847;48.058;7.810;2022-12-18T10:10:48;42.95;;;20.55;;
1699;SDS011;847;48.058;7.810;2022-12-18T10:13:20;32.60;;;18.02;;
1699;SDS011;847;48.058;7.810;2022-12-18T10:15:57;49.40;;;18.95;;
1699;SDS011;847;48.058;7.810;2022-12-18T10:18:50;36.83;;;18.70;;
1699;SDS011;847;48.058;7.810;2022-12-18T10:21:26;46.35;;;20.20;;
1699;SDS011;847;48.058;7.810;2022-12-18T10:24:01;36.75;;;18.27;;
1699;SDS011;847;48.058;7.810;2022-12-18T10:26:36;36.05;;;18.05;;
1699;SDS011;847;48.058;7.810;2022-12-18T10:29:03;32.95;;;17.10;;
1699;SDS011;847;48.058;7.810;2022-12-18T10:31:35;37.33;;;18.45;;
1699;SDS011;847;48.058;7.810;2022-12-18T10:34:02;39.00;;;18.80;;
1699;SDS011;847;48.058;7.810;2022-12-18T10:36:30;38.53;;;18.90;;
1699;SDS011;847;48.058;7.810;2022-12-18T10:39:01;35.67;;;18.45;;
1699;SDS011;847;48.058;7.810;2022-12-18T10:41:41;29.80;;;17.90;;
1699;SDS011;847;48.058;7.810;2022-12-18T10:44:10;35.22;;;18.25;;
1699;SDS011;847;48.058;7.810;2022-12-18T10:46:45;36.15;;;20.55;;
1699;SDS011;847;48.058;7.810;2022-12-18T10:49:21;36.38;;;19.95;;
1699;SDS011;847;48.058;7.810;2022-12-18T10:51:51;37.95;;;18.02;;
1699;SDS011;847;48.058;7.810;2022-12-18T10:54:32;48.47;;;19.65;;
1699;SDS011;847;48.058;7.810;2022-12-18T10:57:13;39.05;;;18.38;;
1699;SDS011;847;48.058;7.810;2022-12-18T10:59:49;42.08;;;18.70;;
1699;SDS011;847;48.058;7.810;2022-12-18T11:02:24;38.00;;;18.58;;
1699;SDS011;847;48.058;7.810;2022-12-18T11:04:53;40.17;;;23.30;;
1699;SDS011;847;48.058;7.810;2022-12-18T11:07:20;37.15;;;22.23;;
1699;SDS011;847;48.058;7.810;2022-12-18T11:09:59;37.40;;;22.42;;
1699;SDS011;847;48.058;7.810;2022-12-18T11:12:30;34.28;;;18.90;;
1699;SDS011;847;48.058;7.810;2022-12-18T11:14:57;35.30;;;19.02;;
1699;SDS011;847;48.058;7.810;2022-12-18T11:17:27;48.20;;;26.13;;
1699;SDS011;847;48.058;7.810;2022-12-18T11:19:56;40.60;;;21.52;;
1699;SDS011;847;48.058;7.810;2022-12-18T11:22:24;47.30;;;23.58;;
1699;SDS011;847;48.058;7.810;2022-12-18T11:24:55;31.92;;;18.88;;
1699;SDS011;847;48.058;7.810;2022-12-18T11:27:24;35.58;;;19.15;;
1699;SDS011;847;48.058;7.810;2022-12-18T11:29:52;34.28;;;17.67;;
1699;SDS011;847;48.058;7.810;2022-12-18T11:32:33;32.05;;;17.95;;
1699;SDS011;847;48.058;7.810;2022-12-18T11:35:04;31.00;;;15.98;;
1699;SDS011;847;48.058;7.810;2022-12-18T11:37:38;32.72;;;17.25;;
1699;SDS011;847;48.058;7.810;2022-12-18T11:40:11;34.75;;;17.88;;
1699;SDS011;847;48.058;7.810;2022-12-18T11:42:44;37.25;;;17.67;;
1699;SDS011;847;48.058;7.810;2022-12-18T11:45:21;33.20;;;18.15;;
1699;SDS011;847;48.058;7.810;2022-12-18T11:47:52;31.17;;;16.13;;
1699;SDS011;847;48.058;7.810;2022-12-18T11:50:24;27.48;;;15.77;;
1699;SDS011;847;48.058;7.810;2022-12-18T11:52:54;26.02;;;15.48;;
1699;SDS011;847;48.058;7.810;2022-12-18T11:55:25;34.70;;;19.10;;
1699;SDS011;847;48.058;7.810;2022-12-18T11:57:58;30.58;;;17.60;;
1699;SDS011;847;48.058;7.810;2022-12-18T12:00:31;34.05;;;21.95;;
1699;SDS011;847;48.058;7.810;2022-12-18T12:03:10;29.92;;;17.75;;
1699;SDS011;847;48.058;7.810;2022-12-18T12:05:50;30.05;;;17.50;;
1699;SDS011;847;48.058;7.810;2022-12-18T12:08:31;34.38;;;18.25;;
1699;SDS011;847;48.058;7.810;2022-12-18T12:11:10;36.38;;;18.63;;
1699;SDS011;847;48.058;7.810;2022-12-18T12:14:01;33.58;;;19.67;;
1699;SDS011;847;48.058;7.810;2022-12-18T12:16:44;32.83;;;19.67;;
1699;SDS011;847;48.058;7.810;2022-12-18T12:19:21;33.90;;;20.05;;
1699;SDS011;847;48.058;7.810;2022-12-18T12:21:58;39.50;;;21.88;;
1699;SDS011;847;48.058;7.810;2022-12-18T12:24:32;37.40;;;20.25;;
1699;SDS011;847;48.058;7.810;2022-12-18T12:27:14;47.90;;;22.20;;
1699;SDS011;847;48.058;7.810;2022-12-18T12:29:49;36.63;;;20.30;;
1699;SDS011;847;48.058;7.810;2022-12-18T12:32:28;42.40;;;20.67;;
1699;SDS011;847;48.058;7.810;2022-12-18T12:35:07;35.47;;;19.95;;
1699;SDS011;847;48.058;7.810;2022-12-18T12:37:51;38.28;;;19.55;;
1699;SDS011;847;48.058;7.810;2022-12-18T12:40:27;31.25;;;19.75;;
1699;SDS011;847;48.058;7.810;2022-12-18T12:42:59;38.95;;;20.90;;
1699;SDS011;847;48.058;7.810;2022-12-18T12:45:42;40.03;;;18.45;;
1699;SDS011;847;48.058;7.810;2022-12-18T12:48:16;35.30;;;20.98;;
1699;SDS011;847;48.058;7.810;2022-12-18T12:50:49;32.45;;;18.02;;
1699;SDS011;847;48.058;7.810;2022-12-18T12:53:20;34.95;;;20.05;;
1699;SDS011;847;48.058;7.810;2022-12-18T12:55:51;30.80;;;17.02;;
1699;SDS011;847;48.058;7.810;2022-12-18T12:58:23;46.75;;;19.48;;
1699;SDS011;847;48.058;7.810;2022-12-18T13:00:59;30.23;;;17.40;;
1699;SDS011;847;48.058;7.810;2022-12-18T13:03:35;34.80;;;19.30;;
1699;SDS011;847;48.058;7.810;2022-12-18T13:06:09;33.55;;;20.50;;
1699;SDS011;847;48.058;7.810;2022-12-18T13:08:53;32.00;;;19.90;;
1699;SDS011;847;48.058;7.810;2022-12-18T13:11:32;33.88;;;20.88;;
1699;SDS011;847;48.058;7.810;2022-12-18T13:14:21;32.05;;;17.83;;
1699;SDS011;847;48.058;7.810;2022-12-18T13:16:50;30.40;;;19.15;;
1699;SDS011;847;48.058;7.810;2022-12-18T13:19:23;33.22;;;17.60;;
1699;SDS011;847;48.058;7.810;2022-12-18T13:21:53;48.45;;;24.65;;
1699;SDS011;847;48.058;7.810;2022-12-18T13:24:23;38.53;;;20.45;;
1699;SDS011;847;48.058;7.810;2022-12-18T13:26:52;37.53;;;19.35;;
1699;SDS011;847;48.058;7.810;2022-12-18T13:32:18;35.08;;;21.55;;
1699;SDS011;847;48.058;7.810;2022-12-18T13:34:46;34.30;;;20.13;;
1699;SDS011;847;48.058;7.810;2022-12-18T13:43:30;32.63;;;17.17;;
1699;SDS011;847;48.058;7.810;2022-12-18T13:46:06;48.25;;;19.40;;
1699;SDS011;847;48.058;7.810;2022-12-18T13:48:53;29.63;;;17.42;;
1699;SDS011;847;48.058;7.810;2022-12-18T13:51:24;31.83;;;18.98;;
1699;SDS011;847;48.058;7.810;2022-12-18T13:53:53;30.60;;;19.38;;
1699;SDS011;847;48.058;7.810;2022-12-18T13:56:24;40.63;;;18.73;;
1699;SDS011;847;48.058;7.810;2022-12-18T13:59:12;36.55;;;21.05;;
1699;SDS011;847;48.058;7.810;2022-12-18T14:01:43;69.28;;;38.53;;
1699;SDS011;847;48.058;7.810;2022-12-18T14:04:11;36.83;;;21.80;;
1699;SDS011;847;48.058;7.810;2022-12-18T14:06:43;32.15;;;20.65;;
1699;SDS011;847;48.058;7.810;2022-12-18T14:09:12;36.42;;;20.23;;
1699;SDS011;847;48.058;7.810;2022-12-18T14:11:41;34.50;;;19.73;;
1699;SDS011;847;48.058;7.810;2022-12-18T14:14:13;35.58;;;20.45;;
1699;SDS011;847;48.058;7.810;2022-12-18T14:16:41;37.35;;;20.13;;
1699;SDS011;847;48.058;7.810;2022-12-18T14:19:10;30.75;;;19.83;;
1699;SDS011;847;48.058;7.810;2022-12-18T14:21:40;43.28;;;27.08;;
1699;SDS011;847;48.058;7.810;2022-12-18T14:24:13;37.85;;;23.05;;
1699;SDS011;847;48.058;7.810;2022-12-18T14:26:41;35.10;;;20.60;;
1699;SDS011;847;48.058;7.810;2022-12-18T14:29:19;37.25;;;21.73;;
1699;SDS011;847;48.058;7.810;2022-12-18T14:32:09;39.47;;;22.92;;
1699;SDS011;847;48.058;7.810;2022-12-18T14:34:37;35.38;;;22.73;;
1699;SDS011;847;48.058;7.810;2022-12-18T14:37:04;36.55;;;22.63;;
1699;SDS011;847;48.058;7.810;2022-12-18T14:39:31;39.75;;;25.30;;
1699;SDS011;847;48.058;7.810;2022-12-18T14:41:58;39.92;;;21.95;;
1699;SDS011;847;48.058;7.810;2022-12-18T14:44:25;37.88;;;21.90;;
1699;SDS011;847;48.058;7.810;2022-12-18T14:46:52;40.28;;;21.02;;
1699;SDS011;847;48.058;7.810;2022-12-18T14:49:21;39.15;;;22.30;;
1699;SDS011;847;48.058;7.810;2022-12-18T14:51:52;33.28;;;21.73;;
1699;SDS011;847;48.058;7.810;2022-12-18T14:54:20;36.63;;;22.23;;
1699;SDS011;847;48.058;7.810;2022-12-18T14:56:48;35.60;;;21.40;;
1699;SDS011;847;48.058;7.810;2022-12-18T14:59:18;46.97;;;24.50;;
1699;SDS011;847;48.058;7.810;2022-12-18T15:01:47;47.88;;;23.92;;
1699;SDS011;847;48.058;7.810;2022-12-18T15:04:25;43.72;;;25.38;;
1699;SDS011;847;48.058;7.810;2022-12-18T15:07:08;35.38;;;21.98;;
1699;SDS011;847;48.058;7.810;2022-12-18T15:09:39;52.50;;;33.65;;
1699;SDS011;847;48.058;7.810;2022-12-18T15:12:21;46.22;;;25.98;;
1699;SDS011;847;48.058;7.810;2022-12-18T15:14:52;36.20;;;23.45;;
1699;SDS011;847;48.058;7.810;2022-12-18T15:17:19;41.22;;;23.73;;
1699;SDS011;847;48.058;7.810;2022-12-18T15:19:49;37.10;;;24.05;;
1699;SDS011;847;48.058;7.810;2022-12-18T15:22:20;35.58;;;22.05;;
1699;SDS011;847;48.058;7.810;2022-12-18T15:24:49;37.25;;;23.95;;
1699;SDS011;847;48.058;7.810;2022-12-18T15:27:26;38.88;;;21.30;;
1699;SDS011;847;48.058;7.810;2022-12-18T15:30:17;42.83;;;21.25;;